createdAt,value
2022-10-15T00:00:00.000Z,4.69
2022-10-15T00:15:00.000Z,4.27
2022-10-15T00:30:00.000Z,4.11
2022-10-15T00:45:00.000Z,3.89
2022-10-15T01:00:00.000Z,4.4
2022-10-15T01:15:00.000Z,4.13
2022-10-15T01:30:00.000Z,4.18
2022-10-15T01:45:00.000Z,4.07
2022-10-15T02:00:00.000Z,4.09
2022-10-15T02:15:00.000Z,4.12
2022-10-15T02:30:00.000Z,4.36
2022-10-15T02:45:00.000Z,4.31
2022-10-15T03:00:00.000Z,4.39
2022-10-15T03:15:00.000Z,4.06
2022-10-15T03:30:00.000Z,4.06
2022-10-15T03:45:00.000Z,4.19
2022-10-15T04:00:00.000Z,4.21
2022-10-15T04:15:00.000Z,4.15
2022-10-15T04:30:00.000Z,4.13
2022-10-15T04:45:00.000Z,3.52
2022-10-15T05:00:00.000Z,3.64
2022-10-15T05:15:00.000Z,4.18
2022-10-15T05:30:00.000Z,4.39
2022-10-15T05:45:00.000Z,5.62
2022-10-15T06:00:00.000Z,6.61
2022-10-15T06:15:00.000Z,6.33
2022-10-15T06:30:00.000Z,7.11
2022-10-15T06:45:00.000Z,7
2022-10-15T07:00:00.000Z,7.13
2022-10-15T07:15:00.000Z,5.01
2022-10-15T07:30:00.000Z,5.64
2022-10-15T07:45:00.000Z,7.2
2022-10-15T08:00:00.000Z,7.11
2022-10-15T08:15:00.000Z,7.66
2022-10-15T08:30:00.000Z,7.24
2022-10-15T08:45:00.000Z,8.07
2022-10-15T09:00:00.000Z,8.58
2022-10-15T09:15:00.000Z,8.6
2022-10-15T09:30:00.000Z,7.85
2022-10-15T09:45:00.000Z,7.04
2022-10-15T10:00:00.000Z,6.67
2022-10-15T10:15:00.000Z,6.72
2022-10-15T10:30:00.000Z,7.67
2022-10-15T10:45:00.000Z,7.24
2022-10-15T11:00:00.000Z,7.65
2022-10-15T11:15:00.000Z,7.49
2022-10-15T11:30:00.000Z,7.48
2022-10-15T11:45:00.000Z,6.2
2022-10-15T12:00:00.000Z,7.09
2022-10-15T12:15:00.000Z,6.98
2022-10-15T12:30:00.000Z,6.76
2022-10-15T12:45:00.000Z,6.69
2022-10-15T13:00:00.000Z,5.34
2022-10-15T13:15:00.000Z,4.11
2022-10-15T13:30:00.000Z,4.02
2022-10-15T13:45:00.000Z,4.25
2022-10-15T14:00:00.000Z,4.16
2022-10-15T14:15:00.000Z,4.31
2022-10-15T14:30:00.000Z,4.91
2022-10-15T14:45:00.000Z,5.22
2022-10-15T15:00:00.000Z,4.44
2022-10-15T15:15:00.000Z,4.27
2022-10-15T15:30:00.000Z,4.39
2022-10-15T15:45:00.000Z,4.24
2022-10-15T16:00:00.000Z,4.32
2022-10-15T16:15:00.000Z,4.6
2022-10-15T16:30:00.000Z,4.51
2022-10-15T16:45:00.000Z,4.47
2022-10-15T17:00:00.000Z,4.58
2022-10-15T17:15:00.000Z,4.99
2022-10-15T17:30:00.000Z,7.08
2022-10-15T17:45:00.000Z,5.19
2022-10-15T18:00:00.000Z,5.8
2022-10-15T18:15:00.000Z,4.47
2022-10-15T18:30:00.000Z,4.48
2022-10-15T18:45:00.000Z,5.4
2022-10-15T19:00:00.000Z,4.22
2022-10-15T19:15:00.000Z,4.75
2022-10-15T19:30:00.000Z,4.33
2022-10-15T19:45:00.000Z,4.47
2022-10-15T20:00:00.000Z,4.19
2022-10-15T20:15:00.000Z,4.32
2022-10-15T20:30:00.000Z,4.8
2022-10-15T20:45:00.000Z,6.66
2022-10-15T21:00:00.000Z,4.89
2022-10-15T21:15:00.000Z,4.46
2022-10-15T21:30:00.000Z,5.82
2022-10-15T21:45:00.000Z,4.27
2022-10-15T22:00:00.000Z,4.48
2022-10-15T22:15:00.000Z,4.31
2022-10-15T22:45:00.000Z,4
2022-10-15T22:45:00.000Z,4.11
2022-10-15T23:00:00.000Z,4.13
2022-10-15T23:15:00.000Z,4.13
2022-10-15T23:30:00.000Z,4.05
2022-10-15T23:45:00.000Z,4.09
